Time;durP1;ratioP1;P1;durP2;ratioP2;P2;SDS_P1;SDS_P2;PMS_P1;PMS_P2;Temp;Humidity;BMP_temperature;BMP_pressure;BME280_temperature;BME280_humidity;BME280_pressure;Samples;Min_cycle;Max_cycle;Signal;HPM_P1;HPM_P2
2022/12/14 00:02:05;;;;;;;0.60;0.60;;;;;;;3.44;96.05;99441.41;5111127;28;20206;-62
2022/12/14 00:04:33;;;;;;;0.70;0.70;;;;;;;3.43;96.31;99449.84;5107458;28;20594;-62
2022/12/14 00:07:00;;;;;;;0.73;0.73;;;;;;;3.45;96.17;99442.25;5110149;28;20203;-62
2022/12/14 00:09:27;;;;;;;0.70;0.70;;;;;;;3.37;95.72;99454.06;5111258;28;20233;-62
2022/12/14 00:11:53;;;;;;;0.60;0.60;;;;;;;3.38;96.16;99451.56;5111166;28;20670;-61
2022/12/14 00:14:20;;;;;;;0.53;0.53;;;;;;;3.35;95.70;99448.19;5108496;28;20198;-62
2022/12/14 00:16:47;;;;;;;0.90;0.90;;;;;;;3.14;95.14;99447.34;5110174;28;20690;-62
2022/12/14 00:19:14;;;;;;;0.70;0.70;;;;;;;3.16;95.45;99458.31;5111061;28;20195;-63
2022/12/14 00:21:42;;;;;;;0.50;0.50;;;;;;;3.17;95.81;99452.41;5110445;28;20199;-62
2022/12/14 00:24:09;;;;;;;0.60;0.60;;;;;;;3.17;95.34;99447.31;5110592;28;20214;-62
2022/12/14 00:26:36;;;;;;;0.50;0.50;;;;;;;3.20;95.54;99448.19;5110370;28;20221;-62
2022/12/14 00:29:03;;;;;;;0.60;0.60;;;;;;;3.16;95.77;99449.88;5110778;28;20202;-62
2022/12/14 00:31:31;;;;;;;1.10;1.10;;;;;;;3.16;96.21;99445.66;5109925;28;20199;-62
2022/12/14 00:33:58;;;;;;;0.60;0.60;;;;;;;3.23;96.50;99448.19;5110632;28;20203;-62
2022/12/14 00:36:24;;;;;;;0.60;0.60;;;;;;;3.24;96.23;99454.94;5114122;28;20575;-62
2022/12/14 00:38:53;;;;;;;0.53;0.53;;;;;;;3.23;96.29;99441.44;5114286;28;20226;-62
2022/12/14 00:41:19;;;;;;;0.70;0.70;;;;;;;3.21;96.80;99439.72;5114466;28;20203;-62
2022/12/14 00:43:46;;;;;;;0.60;0.60;;;;;;;3.11;96.18;99442.25;5114618;28;20202;-62
2022/12/14 00:46:13;;;;;;;0.60;0.60;;;;;;;3.17;96.96;99447.31;5111723;28;20199;-62
2022/12/14 00:48:40;;;;;;;0.63;0.63;;;;;;;3.24;96.96;99447.31;5114448;28;20206;-62
2022/12/14 00:51:06;;;;;;;0.50;0.50;;;;;;;3.28;97.38;99444.81;5114062;28;20206;-61
2022/12/14 00:53:33;;;;;;;0.60;0.60;;;;;;;3.31;97.06;99443.94;5114374;28;20206;-62
2022/12/14 00:56:07;;;;;;;0.57;0.57;;;;;;;3.36;97.49;99449.88;5112338;28;20195;-62
2022/12/14 00:58:34;;;;;;;0.90;0.90;;;;;;;3.44;96.79;99441.41;5112731;28;20198;-62
2022/12/14 01:01:01;;;;;;;0.60;0.60;;;;;;;3.43;96.15;99433.81;5114449;28;20594;-62
2022/12/14 01:03:28;;;;;;;0.60;0.60;;;;;;;3.48;96.15;99443.09;5114148;28;20300;-62
2022/12/14 01:05:56;;;;;;;0.63;0.63;;;;;;;3.48;96.33;99448.19;5114166;28;20245;-62
2022/12/14 01:08:23;;;;;;;0.70;0.70;;;;;;;3.52;96.59;99438.88;5111674;28;20213;-62
2022/12/14 01:10:50;;;;;;;0.57;0.57;;;;;;;3.48;96.46;99439.72;5114256;28;20210;-62
2022/12/14 01:13:18;;;;;;;0.67;0.67;;;;;;;3.47;96.75;99425.34;5113998;28;20203;-62
2022/12/14 01:15:45;;;;;;;0.70;0.70;;;;;;;3.57;96.56;99449.84;5114286;28;20266;-62
2022/12/14 01:18:12;;;;;;;0.73;0.73;;;;;;;3.52;96.12;99443.94;5113769;28;20574;-62
2022/12/14 01:20:39;;;;;;;0.97;0.97;;;;;;;3.58;96.14;99439.72;5112116;28;20202;-62
2022/12/14 01:23:06;;;;;;;0.60;0.60;;;;;;;3.61;96.14;99452.38;5114230;28;20646;-62
2022/12/14 01:25:33;;;;;;;0.73;0.73;;;;;;;3.64;96.45;99443.94;5113800;28;20202;-62
2022/12/14 01:28:00;;;;;;;0.60;0.60;;;;;;;3.59;96.18;99436.31;5110609;28;20198;-62
2022/12/14 01:30:28;;;;;;;0.70;0.70;;;;;;;3.71;96.28;99450.69;5113628;28;20214;-62
2022/12/14 01:32:55;;;;;;;0.50;0.50;;;;;;;3.73;96.53;99454.03;5113852;28;20248;-62
2022/12/14 01:35:21;;;;;;;0.60;0.60;;;;;;;3.74;95.80;99458.28;5112041;28;20206;-62
2022/12/14 01:37:48;;;;;;;0.60;0.60;;;;;;;3.76;95.96;99448.97;5112391;28;20585;-62
2022/12/14 01:40:16;;;;;;;0.70;0.70;;;;;;;3.80;96.02;99455.72;5111897;28;20219;-62
2022/12/14 01:42:43;;;;;;;0.50;0.50;;;;;;;3.80;95.63;99463.31;5113417;28;20206;-62
2022/12/14 01:45:19;;;;;;;0.50;0.50;;;;;;;3.81;95.97;99462.50;5113543;28;20198;-62
2022/12/14 01:47:52;;;;;;;1.13;1.13;;;;;;;3.82;96.04;99459.09;5112170;28;20205;-62
2022/12/14 01:50:26;;;;;;;0.70;0.70;;;;;;;3.86;95.64;99465.00;5113055;28;20712;-62
2022/12/14 01:52:56;;;;;;;0.53;0.53;;;;;;;3.84;94.72;99467.56;5113283;28;20195;-62
2022/12/14 01:55:27;;;;;;;0.60;0.60;;;;;;;3.87;93.29;99462.47;5111959;28;20248;-62
2022/12/14 01:58:00;;;;;;;0.60;0.60;;;;;;;3.85;93.22;99461.63;5113007;28;20659;-62
2022/12/14 02:00:27;;;;;;;0.60;0.60;;;;;;;3.63;92.22;99432.94;5113347;28;20209;-62
2022/12/14 02:02:59;;;;;;;0.80;0.80;;;;;;;3.76;92.01;99464.19;5113222;27;20194;-62
2022/12/14 02:05:26;;;;;;;0.57;0.57;;;;;;;3.75;92.43;99462.47;5110854;28;20206;-63
2022/12/14 02:07:55;;;;;;;0.60;0.60;;;;;;;3.75;92.38;99456.59;5113004;28;20195;-62
2022/12/14 02:10:26;;;;;;;0.80;0.80;;;;;;;3.64;91.99;99449.84;5112948;28;20211;-62
2022/12/14 02:13:00;;;;;;;0.70;0.70;;;;;;;3.51;91.19;99457.47;5111466;28;20195;-62
2022/12/14 02:15:27;;;;;;;0.60;0.60;;;;;;;3.48;91.50;99452.41;5107630;27;20687;-62
2022/12/14 02:17:57;;;;;;;0.80;0.80;;;;;;;3.53;91.87;99461.66;5109928;28;20199;-62
2022/12/14 02:20:29;;;;;;;0.50;0.50;;;;;;;3.56;92.10;99460.81;5112348;28;20195;-62
2022/12/14 02:23:27;;;;;;;0.70;0.70;;;;;;;3.55;92.25;99471.81;5112404;28;20203;-61
2022/12/14 02:26:42;;;;;;;0.70;0.70;;;;;;;3.60;92.82;99465.03;5110797;28;20195;-62
2022/12/14 02:29:37;;;;;;;0.60;0.60;;;;;;;3.62;93.08;99464.19;5112701;28;20268;-62
2022/12/14 02:32:17;;;;;;;0.70;0.70;;;;;;;3.66;93.13;99467.56;5112845;28;20195;-62
2022/12/14 02:34:54;;;;;;;0.70;0.70;;;;;;;3.67;92.96;99469.28;5112461;27;20202;-62
2022/12/14 02:37:29;;;;;;;0.70;0.70;;;;;;;3.69;93.17;99468.41;5112239;28;20213;-62
2022/12/14 02:40:04;;;;;;;0.50;0.50;;;;;;;3.57;92.74;99457.44;5111638;28;20218;-62
2022/12/14 02:42:42;;;;;;;0.50;0.50;;;;;;;3.18;94.28;99454.09;5110022;28;20224;-62
2022/12/14 02:45:17;;;;;;;0.60;0.60;;;;;;;3.05;95.24;99457.47;5109419;28;20198;-62
2022/12/14 02:47:53;;;;;;;0.70;0.70;;;;;;;2.96;95.47;99452.41;5112396;28;20628;-62
2022/12/14 02:50:25;;;;;;;0.70;0.70;;;;;;;2.96;96.53;99451.53;5111738;28;20210;-62
2022/12/14 02:53:02;;;;;;;0.50;0.50;;;;;;;2.96;96.89;99457.47;5107646;28;20209;-62
2022/12/14 02:55:34;;;;;;;0.60;0.60;;;;;;;3.04;97.35;99465.03;5112040;28;20285;-62
2022/12/14 02:58:06;;;;;;;0.90;0.90;;;;;;;3.08;97.13;99470.13;5111789;27;20636;-62
2022/12/14 03:00:37;;;;;;;0.70;0.70;;;;;;;3.17;96.92;99462.53;5112120;28;20206;-62
2022/12/14 03:03:05;;;;;;;0.73;0.73;;;;;;;3.12;96.94;99449.03;5110032;28;20207;-62
2022/12/14 03:05:37;;;;;;;0.63;0.63;;;;;;;3.14;96.11;99457.47;5111648;28;20282;-62
2022/12/14 03:08:06;;;;;;;0.57;0.57;;;;;;;3.03;95.54;99451.56;5112171;28;20255;-62
2022/12/14 03:10:39;;;;;;;0.70;0.70;;;;;;;2.89;95.39;99445.63;5111580;28;20217;-62
2022/12/14 03:13:14;;;;;;;0.80;0.80;;;;;;;2.93;96.06;99449.88;5111855;28;20226;-62
2022/12/14 03:15:47;;;;;;;0.60;0.60;;;;;;;2.91;96.53;99449.00;5111954;28;20693;-62
2022/12/14 03:18:19;;;;;;;0.60;0.60;;;;;;;2.83;97.01;99450.69;5111694;28;20194;-62
2022/12/14 03:20:50;;;;;;;0.50;0.50;;;;;;;2.93;97.01;99442.25;5111581;28;20244;-62
2022/12/14 03:23:22;;;;;;;0.73;0.73;;;;;;;2.79;97.03;99445.59;5111339;28;20582;-62
2022/12/14 03:25:52;;;;;;;0.53;0.53;;;;;;;2.72;97.00;99459.94;5111434;28;20252;-62
2022/12/14 03:28:24;;;;;;;0.60;0.60;;;;;;;2.74;97.84;99468.41;5111443;28;20259;-62
2022/12/14 03:30:57;;;;;;;0.60;0.60;;;;;;;2.77;97.73;99459.97;5110324;28;20225;-62
2022/12/14 03:33:27;;;;;;;0.67;0.67;;;;;;;2.84;97.62;99457.44;5109119;28;20256;-62
2022/12/14 03:35:59;;;;;;;0.60;0.60;;;;;;;2.90;97.59;99467.59;5111286;28;20191;-61
2022/12/14 03:38:34;;;;;;;0.50;0.50;;;;;;;2.99;97.54;99465.06;5108008;28;20229;-62
2022/12/14 03:41:12;;;;;;;0.40;0.40;;;;;;;3.04;96.37;99459.97;5109364;28;20288;-62
2022/12/14 03:43:49;;;;;;;0.60;0.60;;;;;;;2.96;95.96;99456.59;5109433;28;20503;-62
2022/12/14 03:46:23;;;;;;;0.70;0.70;;;;;;;2.91;96.00;99464.19;5111436;28;20586;-62
2022/12/14 03:48:53;;;;;;;0.50;0.50;;;;;;;2.98;96.50;99470.94;5111013;28;20632;-61
2022/12/14 03:51:25;;;;;;;0.60;0.60;;;;;;;2.98;96.12;99459.97;5107302;28;20708;-62
2022/12/14 03:54:00;;;;;;;0.67;0.67;;;;;;;2.99;96.30;99457.47;5110211;28;20190;-61
2022/12/14 03:56:39;;;;;;;0.60;0.60;;;;;;;2.98;96.38;99465.88;5111072;28;20206;-62
2022/12/14 03:59:10;;;;;;;0.57;0.57;;;;;;;2.98;96.17;99465.03;5110966;28;20259;-62
2022/12/14 04:01:45;;;;;;;0.50;0.50;;;;;;;2.96;96.22;99462.53;5111033;28;20677;-62
2022/12/14 04:04:17;;;;;;;0.50;0.50;;;;;;;3.01;96.15;99460.81;5108943;28;20666;-62
2022/12/14 04:06:52;;;;;;;0.50;0.50;;;;;;;2.95;95.98;99440.56;5110202;28;20195;-62
2022/12/14 04:09:30;;;;;;;0.60;0.60;;;;;;;2.86;95.82;99445.63;5111116;28;20206;-62
2022/12/14 04:20:33;;;;;;;0.60;0.60;;;;;;;2.77;97.78;99448.16;5115442;28;20260;-62
2022/12/14 04:23:10;;;;;;;0.60;0.60;;;;;;;2.74;97.56;99460.81;5112755;28;20202;-62
2022/12/14 04:31:21;;;;;;;0.67;0.67;;;;;;;2.68;98.25;99465.00;5114136;28;20270;-62
2022/12/14 04:33:54;;;;;;;0.70;0.70;;;;;;;2.74;98.83;99449.81;5112630;28;20214;-62
2022/12/14 04:36:25;;;;;;;0.70;0.70;;;;;;;2.69;98.69;99447.28;5111049;28;20629;-62
2022/12/14 04:38:59;;;;;;;0.80;0.80;;;;;;;2.69;98.77;99451.50;5114280;28;20279;-62
2022/12/14 04:41:31;;;;;;;0.60;0.60;;;;;;;2.54;99.24;99432.06;5114653;28;20329;-62
2022/12/14 04:44:03;;;;;;;0.93;0.93;;;;;;;2.68;99.10;99447.28;5113569;28;20195;-62
2022/12/14 04:46:34;;;;;;;0.60;0.60;;;;;;;2.67;99.16;99451.50;5110049;28;20199;-62
2022/12/14 04:49:16;;;;;;;0.70;0.70;;;;;;;2.69;99.17;99452.34;5113385;28;20549;-62
2022/12/14 04:51:49;;;;;;;0.63;0.63;;;;;;;2.68;99.15;99450.66;5114164;28;20210;-62
2022/12/14 04:54:24;;;;;;;0.50;0.50;;;;;;;2.70;99.57;99454.03;5114026;28;20252;-62
2022/12/14 04:57:00;;;;;;;0.90;0.90;;;;;;;2.79;99.58;99459.13;5114627;28;20202;-62
2022/12/14 04:59:27;;;;;;;0.60;0.60;;;;;;;2.87;99.34;99457.47;5113395;28;20195;-62
2022/12/14 05:02:03;;;;;;;0.70;0.70;;;;;;;2.93;98.62;99465.06;5114300;28;20186;-62
2022/12/14 05:04:53;;;;;;;0.80;0.80;;;;;;;2.86;98.92;99468.41;5114040;28;20283;-62
2022/12/14 05:07:33;;;;;;;0.60;0.60;;;;;;;2.86;98.92;99481.06;5109416;28;20284;-62
2022/12/14 05:10:06;;;;;;;0.60;0.60;;;;;;;2.80;98.95;99470.94;5109179;28;20747;-61
2022/12/14 05:12:40;;;;;;;0.63;0.63;;;;;;;2.59;99.69;99460.75;5112562;28;20218;-61
2022/12/14 05:15:12;;;;;;;0.60;0.60;;;;;;;2.55;100.00;99470.00;5109755;28;20198;-61
2022/12/14 05:17:41;;;;;;;0.60;0.60;;;;;;;2.64;100.00;99481.88;5112281;28;20202;-62
2022/12/14 05:20:15;;;;;;;1.20;1.20;;;;;;;2.58;100.00;99464.13;5114171;28;20244;-61
2022/12/14 05:22:42;;;;;;;0.70;0.70;;;;;;;2.41;100.00;99466.59;5112912;28;20271;-61
2022/12/14 05:25:09;;;;;;;0.60;0.60;;;;;;;2.38;100.00;99460.69;5112622;27;20666;-61
2022/12/14 05:27:36;;;;;;;0.70;0.70;;;;;;;2.57;100.00;99457.38;5113649;28;20210;-61
2022/12/14 05:30:03;;;;;;;0.77;0.77;;;;;;;2.64;100.00;99452.34;5113624;28;20206;-61
2022/12/14 05:32:30;;;;;;;0.70;0.70;;;;;;;2.67;100.00;99453.19;5113752;28;20694;-61
2022/12/14 05:34:57;;;;;;;0.80;0.80;;;;;;;2.71;100.00;99454.88;5112400;28;20608;-61
2022/12/14 05:37:25;;;;;;;0.63;0.63;;;;;;;2.69;100.00;99452.34;5113369;28;20205;-61
2022/12/14 05:39:52;;;;;;;0.57;0.57;;;;;;;2.82;100.00;99474.31;5112137;27;20702;-61
2022/12/14 05:42:18;;;;;;;0.80;0.80;;;;;;;2.81;100.00;99474.31;5113118;27;20273;-61
2022/12/14 05:44:45;;;;;;;0.57;0.57;;;;;;;2.85;100.00;99479.38;5112090;28;20210;-61
2022/12/14 05:47:13;;;;;;;0.63;0.63;;;;;;;2.88;100.00;99479.38;5112489;28;20199;-61
2022/12/14 05:49:40;;;;;;;0.80;0.80;;;;;;;2.94;100.00;99476.84;5110505;28;20624;-60
2022/12/14 05:52:07;;;;;;;0.80;0.80;;;;;;;2.98;99.50;99483.63;5113419;28;20218;-61
2022/12/14 05:54:35;;;;;;;0.80;0.80;;;;;;;3.04;99.44;99500.50;5109575;28;20222;-61
2022/12/14 05:57:02;;;;;;;0.70;0.70;;;;;;;3.11;98.50;99508.13;5111753;28;20198;-61
2022/12/14 05:59:29;;;;;;;0.70;0.70;;;;;;;3.13;98.18;99498.81;5105134;28;20454;-59
2022/12/14 06:01:56;;;;;;;0.53;0.53;;;;;;;3.25;98.05;99494.63;5112387;28;20194;-59
2022/12/14 06:04:23;;;;;;;0.80;0.80;;;;;;;3.27;97.65;99488.69;5113039;28;20247;-59
2022/12/14 06:06:50;;;;;;;0.70;0.70;;;;;;;3.29;97.34;99492.09;5113046;28;20202;-58
2022/12/14 06:09:18;;;;;;;0.80;0.80;;;;;;;3.33;97.23;99492.94;5113232;28;20247;-59
2022/12/14 06:11:48;;;;;;;1.20;1.13;;;;;;;3.35;96.99;99492.09;5113056;28;20211;-59
2022/12/14 06:14:14;;;;;;;0.50;0.50;;;;;;;3.37;96.61;99500.53;5112029;28;20628;-59
2022/12/14 06:16:43;;;;;;;0.63;0.63;;;;;;;3.32;95.58;99503.91;5111182;28;20202;-59
2022/12/14 06:19:11;;;;;;;0.80;0.80;;;;;;;3.32;95.39;99511.53;5110173;28;20199;-59
2022/12/14 06:21:39;;;;;;;0.60;0.60;;;;;;;3.32;95.64;99501.38;5111739;28;20239;-59
2022/12/14 06:24:07;;;;;;;0.50;0.50;;;;;;;3.37;95.40;99504.75;5112576;28;20195;-59
2022/12/14 06:26:39;;;;;;;0.97;0.97;;;;;;;3.36;94.84;99498.00;5112080;28;20662;-59
2022/12/14 06:29:11;;;;;;;0.60;0.60;;;;;;;3.35;94.94;99502.25;5110159;28;20194;-59
2022/12/14 06:31:38;;;;;;;0.93;0.93;;;;;;;3.37;94.96;99505.59;5112308;28;20709;-59
2022/12/14 06:34:05;;;;;;;0.67;0.67;;;;;;;3.40;94.89;99512.34;5111689;28;20194;-59
2022/12/14 06:36:34;;;;;;;0.90;0.90;;;;;;;3.34;93.63;99504.75;5112119;28;20285;-59
2022/12/14 06:39:03;;;;;;;0.60;0.60;;;;;;;3.40;93.65;99517.41;5112429;28;20225;-59
2022/12/14 06:41:30;;;;;;;0.60;0.60;;;;;;;3.45;94.24;99536.03;5112599;28;20187;-59
2022/12/14 06:43:57;;;;;;;1.70;1.70;;;;;;;3.48;94.33;99528.41;5112520;28;20198;-59
2022/12/14 06:46:25;;;;;;;1.00;1.00;;;;;;;3.47;95.28;99532.63;5112130;28;20190;-59
2022/12/14 06:48:52;;;;;;;0.67;0.67;;;;;;;3.46;96.00;99535.16;5112374;27;20642;-59
2022/12/14 06:51:19;;;;;;;0.60;0.60;;;;;;;3.46;96.06;99540.22;5112037;28;20283;-59
2022/12/14 06:53:46;;;;;;;1.17;1.17;;;;;;;3.41;95.39;99536.84;5112336;28;20693;-59
2022/12/14 06:56:16;;;;;;;0.80;0.80;;;;;;;3.45;95.64;99543.63;5111825;28;20618;-59
2022/12/14 06:58:43;;;;;;;0.83;0.83;;;;;;;3.48;94.55;99549.53;5112220;27;20579;-59
2022/12/14 07:01:13;;;;;;;1.17;1.17;;;;;;;3.48;93.81;99544.47;5112418;28;20629;-59
2022/12/14 07:03:42;;;;;;;0.77;0.77;;;;;;;3.44;93.16;99541.94;5112300;28;20199;-59
2022/12/14 07:06:10;;;;;;;0.80;0.80;;;;;;;3.37;92.41;99540.22;5112144;28;20206;-59
2022/12/14 07:08:38;;;;;;;0.80;0.80;;;;;;;3.46;92.12;99552.91;5110253;28;20712;-59
2022/12/14 07:11:07;;;;;;;0.63;0.63;;;;;;;3.51;93.14;99533.47;5112146;28;20877;-59
2022/12/14 07:13:34;;;;;;;0.60;0.60;;;;;;;3.71;92.70;99534.34;5110962;28;20623;-60
2022/12/14 07:16:01;;;;;;;0.60;0.60;;;;;;;3.80;91.48;99530.94;5112069;28;20554;-59
2022/12/14 07:18:29;;;;;;;0.70;0.70;;;;;;;3.70;90.06;99530.09;5111313;28;20646;-59
2022/12/14 07:20:58;;;;;;;1.67;1.67;;;;;;;3.58;90.17;99504.78;5112101;28;20202;-59
2022/12/14 07:23:25;;;;;;;0.60;0.60;;;;;;;3.57;89.61;99533.47;5109322;28;20194;-59
2022/12/14 07:25:52;;;;;;;0.60;0.60;;;;;;;3.68;89.99;99537.69;5112005;28;20221;-60
2022/12/14 07:28:20;;;;;;;0.60;0.60;;;;;;;3.79;90.51;99542.75;5109787;28;20195;-59
2022/12/14 07:30:47;;;;;;;0.53;0.53;;;;;;;3.89;90.89;99539.38;5111622;28;20655;-59
2022/12/14 07:33:14;;;;;;;0.57;0.57;;;;;;;3.91;89.84;99537.66;5111727;28;20223;-59
2022/12/14 07:35:40;;;;;;;0.83;0.83;;;;;;;3.90;89.53;99538.53;5111642;28;20256;-60
2022/12/14 07:38:08;;;;;;;0.60;0.60;;;;;;;3.98;89.74;99531.75;5109933;28;20190;-60
2022/12/14 07:40:35;;;;;;;0.50;0.50;;;;;;;4.01;89.60;99518.22;5110638;28;20224;-60
2022/12/14 07:43:02;;;;;;;0.60;0.60;;;;;;;4.02;89.37;99528.38;5111764;28;20577;-60
2022/12/14 07:45:29;;;;;;;0.50;0.50;;;;;;;4.00;89.54;99527.53;5110909;28;20203;-59
2022/12/14 07:47:56;;;;;;;0.70;0.70;;;;;;;4.03;90.24;99521.59;5111328;28;21207;-60
2022/12/14 07:50:23;;;;;;;0.50;0.50;;;;;;;4.05;89.84;99533.44;5109204;28;20194;-60
2022/12/14 07:52:50;;;;;;;0.50;0.50;;;;;;;4.03;89.71;99537.69;5111204;28;20225;-60
2022/12/14 07:55:18;;;;;;;0.60;0.60;;;;;;;4.07;88.58;99553.75;5111522;28;20608;-60
2022/12/14 07:57:45;;;;;;;0.60;0.60;;;;;;;4.11;88.70;99551.19;5111164;28;20232;-60
2022/12/14 08:00:13;;;;;;;0.80;0.80;;;;;;;4.11;89.13;99553.72;5108837;28;20602;-60
2022/12/14 08:02:40;;;;;;;0.70;0.70;;;;;;;4.21;89.40;99557.94;5111166;28;20202;-60
2022/12/14 08:05:07;;;;;;;0.60;0.60;;;;;;;4.24;88.64;99562.13;5111313;28;20205;-60
2022/12/14 08:07:34;;;;;;;0.70;0.70;;;;;;;4.31;88.95;99579.03;5111489;28;20202;-60
2022/12/14 08:10:01;;;;;;;0.60;0.60;;;;;;;4.35;89.16;99583.28;5108250;28;20267;-60
2022/12/14 08:12:29;;;;;;;0.50;0.50;;;;;;;4.41;88.86;99569.72;5111164;28;20571;-60
2022/12/14 08:14:56;;;;;;;0.53;0.53;;;;;;;4.42;87.91;99571.41;5111404;28;20206;-60
2022/12/14 08:17:24;;;;;;;0.60;0.60;;;;;;;4.44;87.92;99555.31;5111204;28;20209;-60
2022/12/14 08:19:51;;;;;;;0.60;0.60;;;;;;;4.53;87.59;99551.91;5110414;28;20194;-60
2022/12/14 08:22:18;;;;;;;0.70;0.70;;;;;;;4.52;86.74;99560.38;5111120;28;20728;-60
2022/12/14 08:24:44;;;;;;;0.80;0.80;;;;;;;4.31;86.27;99537.59;5111115;28;20210;-59
2022/12/14 08:27:11;;;;;;;0.67;0.67;;;;;;;4.41;85.37;99572.25;5110628;28;20671;-60
2022/12/14 08:29:39;;;;;;;0.97;0.97;;;;;;;4.41;84.44;99573.09;5110892;28;20210;-60
2022/12/14 08:32:06;;;;;;;0.60;0.60;;;;;;;4.48;85.39;99563.78;5111049;28;20212;-60
2022/12/14 08:34:33;;;;;;;0.50;0.50;;;;;;;4.41;83.97;99578.19;5109324;28;20228;-60
2022/12/14 08:37:00;;;;;;;0.77;0.77;;;;;;;4.44;82.68;99579.84;5110641;28;20198;-60
2022/12/14 08:39:27;;;;;;;1.47;1.47;;;;;;;4.57;82.36;99578.97;5110693;28;20275;-60
2022/12/14 08:41:54;;;;;;;0.50;0.50;;;;;;;4.68;82.73;99569.63;5110857;28;20198;-59
2022/12/14 08:44:21;;;;;;;0.57;0.57;;;;;;;4.71;82.09;99577.25;5107334;28;20198;-59
2022/12/14 08:46:49;;;;;;;0.63;0.63;;;;;;;4.75;82.27;99571.28;5110896;28;20571;-60
2022/12/14 08:49:16;;;;;;;0.60;0.60;;;;;;;4.73;80.39;99575.53;5111051;28;20206;-60
2022/12/14 08:51:42;;;;;;;0.73;0.73;;;;;;;4.68;79.05;99572.19;5110882;28;20215;-60
2022/12/14 08:54:09;;;;;;;0.70;0.70;;;;;;;4.83;81.06;99577.19;5109352;28;20205;-60
2022/12/14 08:56:36;;;;;;;0.50;0.50;;;;;;;4.70;79.83;99573.84;5110780;28;20259;-60
2022/12/14 08:59:03;;;;;;;0.70;0.70;;;;;;;4.64;79.34;99567.94;5114675;28;20256;-60
2022/12/14 09:01:31;;;;;;;0.60;0.60;;;;;;;4.65;79.75;99551.88;5113571;28;20198;-60
2022/12/14 09:04:02;;;;;;;0.70;0.70;;;;;;;4.86;78.94;99572.09;5113435;28;20194;-60
2022/12/14 09:06:29;;;;;;;0.67;0.67;;;;;;;4.90;77.59;99568.69;5110995;28;20634;-60
2022/12/14 09:08:57;;;;;;;0.60;0.60;;;;;;;4.85;78.00;99551.78;5114340;28;20190;-60
2022/12/14 09:11:24;;;;;;;0.80;0.80;;;;;;;5.04;77.50;99564.38;5114204;28;20222;-60
2022/12/14 09:13:53;;;;;;;0.60;0.60;;;;;;;5.06;78.62;99544.91;5114328;27;20213;-60
2022/12/14 09:16:22;;;;;;;0.90;0.90;;;;;;;5.15;77.68;99534.66;5110425;28;20198;-60
2022/12/14 09:18:49;;;;;;;0.63;0.63;;;;;;;5.06;78.29;99547.44;5114345;28;20198;-60
2022/12/14 09:21:17;;;;;;;0.97;0.97;;;;;;;5.18;77.88;99547.34;5114313;28;20247;-60
2022/12/14 09:23:45;;;;;;;0.60;0.60;;;;;;;5.10;78.72;99535.56;5114552;28;20191;-60
2022/12/14 09:26:13;;;;;;;1.00;1.00;;;;;;;5.18;78.07;99534.66;5110492;28;20198;-59
2022/12/14 09:28:43;;;;;;;0.80;0.80;;;;;;;5.13;75.46;99541.47;5114283;28;20260;-60
2022/12/14 09:31:13;;;;;;;0.87;0.87;;;;;;;5.17;74.49;99529.59;5113865;28;20201;-60
2022/12/14 09:33:40;;;;;;;0.90;0.90;;;;;;;5.29;75.00;99522.72;5114110;28;20272;-60
2022/12/14 09:36:09;;;;;;;0.60;0.60;;;;;;;5.27;75.41;99519.34;5113250;28;20711;-60
2022/12/14 09:38:38;;;;;;;0.50;0.50;;;;;;;5.29;75.95;99509.16;5113087;28;20621;-60
2022/12/14 09:41:07;;;;;;;0.50;0.50;;;;;;;5.33;76.38;99505.75;5113564;27;20203;-60
2022/12/14 09:43:40;;;;;;;0.90;0.90;;;;;;;5.20;75.00;99511.78;5112924;28;20194;-60
2022/12/14 09:46:26;;;;;;;0.83;0.83;;;;;;;5.07;75.82;99508.44;5113767;28;20190;-60
2022/12/14 09:48:56;;;;;;;0.60;0.60;;;;;;;5.21;75.76;99509.22;5113746;28;20219;-59
2022/12/14 09:51:30;;;;;;;0.67;0.67;;;;;;;5.32;76.83;99510.84;5112993;28;20650;-60
2022/12/14 09:54:06;;;;;;;0.50;0.50;;;;;;;5.43;77.75;99514.97;5113057;28;20198;-59
2022/12/14 09:56:33;;;;;;;0.80;0.80;;;;;;;5.42;75.03;99507.38;5113178;28;20252;-60
2022/12/14 09:59:02;;;;;;;0.60;0.60;;;;;;;5.13;75.65;99475.41;5113715;28;20194;-59
2022/12/14 10:01:54;;;;;;;0.60;0.60;;;;;;;5.27;74.97;99498.16;5113323;28;20195;-60
2022/12/14 10:04:36;;;;;;;0.70;0.70;;;;;;;5.28;76.00;99495.63;5112848;28;20198;-60
2022/12/14 10:07:13;;;;;;;0.67;0.67;;;;;;;5.20;77.50;99481.28;5112943;28;20195;-60
2022/12/14 10:09:50;;;;;;;0.63;0.63;;;;;;;5.42;77.34;99492.97;5113466;28;20616;-60
2022/12/14 10:12:28;;;;;;;2.93;0.83;;;;;;;5.38;77.94;99465.88;5113411;28;20210;-60
2022/12/14 10:15:02;;;;;;;0.60;0.60;;;;;;;5.64;78.04;99491.09;5107501;28;20194;-60
2022/12/14 10:17:42;;;;;;;0.60;0.60;;;;;;;5.73;78.73;99493.53;5112712;28;20190;-60
2022/12/14 10:20:19;;;;;;;0.60;0.60;;;;;;;5.76;77.40;99496.06;5113231;28;20195;-60
2022/12/14 10:22:50;;;;;;;0.80;0.80;;;;;;;5.76;77.46;99498.59;5111988;28;20194;-60
2022/12/14 10:25:21;;;;;;;0.60;0.60;;;;;;;5.93;78.67;99495.94;5112873;28;20575;-60
2022/12/14 10:27:55;;;;;;;0.90;0.90;;;;;;;6.05;78.33;99501.72;5112941;28;20198;-60
2022/12/14 10:30:22;;;;;;;0.50;0.50;;;;;;;6.00;77.56;99483.13;5107953;28;20196;-60
2022/12/14 10:32:52;;;;;;;1.47;0.90;;;;;;;5.89;76.31;99497.66;5112451;28;20223;-60
2022/12/14 10:35:22;;;;;;;0.60;0.60;;;;;;;5.79;76.26;99475.66;5113059;28;20294;-60
2022/12/14 10:37:59;;;;;;;0.63;0.63;;;;;;;6.06;77.40;99487.31;5112697;28;20751;-60
2022/12/14 10:40:29;;;;;;;0.57;0.57;;;;;;;6.09;76.44;99490.66;5112510;27;20222;-60
2022/12/14 10:43:10;;;;;;;0.60;0.60;;;;;;;6.14;75.22;99473.63;5112763;28;20199;-60
2022/12/14 10:45:46;;;;;;;1.50;1.50;;;;;;;6.12;75.78;99466.88;5112826;27;20202;-60
2022/12/14 10:48:31;;;;;;;0.57;0.57;;;;;;;6.17;76.46;99460.88;5112668;28;20195;-60
2022/12/14 10:51:03;;;;;;;0.50;0.50;;;;;;;6.33;75.80;99447.09;5112006;28;20194;-60
2022/12/14 10:53:37;;;;;;;0.60;0.60;;;;;;;6.44;77.01;99435.94;5110901;28;20210;-60
2022/12/14 10:56:14;;;;;;;0.60;0.60;;;;;;;6.50;75.91;99443.50;5112183;28;20273;-60
2022/12/14 10:58:40;;;;;;;0.60;0.60;;;;;;;6.63;75.22;99437.38;5112371;28;20677;-60
2022/12/14 11:01:13;;;;;;;0.50;0.50;;;;;;;6.69;75.49;99424.56;5112006;28;20275;-60
2022/12/14 11:03:41;;;;;;;0.70;0.70;;;;;;;6.65;74.98;99438.22;5112030;28;20248;-60
2022/12/14 11:06:15;;;;;;;0.57;0.57;;;;;;;6.55;74.77;99429.00;5112151;28;20194;-60
2022/12/14 11:08:45;;;;;;;0.70;0.70;;;;;;;6.48;73.69;99430.81;5112163;28;20255;-60
2022/12/14 11:11:17;;;;;;;1.03;1.03;;;;;;;6.60;73.59;99422.13;5111823;28;20198;-60
2022/12/14 11:13:49;;;;;;;0.70;0.70;;;;;;;6.65;73.53;99417.84;5111275;28;20264;-60
2022/12/14 11:16:22;;;;;;;0.40;0.40;;;;;;;6.67;74.50;99396.56;5112036;28;20206;-60
2022/12/14 11:18:57;;;;;;;0.70;0.70;;;;;;;6.62;73.81;99392.41;5111702;28;20574;-60
2022/12/14 11:21:31;;;;;;;0.50;0.50;;;;;;;6.58;74.29;99396.72;5111914;28;20277;-60
2022/12/14 11:23:58;;;;;;;1.20;1.20;;;;;;;6.48;73.22;99409.59;5111746;28;20187;-60
2022/12/14 11:26:32;;;;;;;0.50;0.50;;;;;;;6.33;74.06;99406.38;5110758;28;20604;-60
2022/12/14 11:29:00;;;;;;;0.77;0.77;;;;;;;6.50;74.12;99407.84;5111763;27;20206;-60
2022/12/14 11:31:32;;;;;;;0.57;0.57;;;;;;;6.63;74.21;99409.34;5111926;28;20203;-60
2022/12/14 11:34:01;;;;;;;1.30;1.30;;;;;;;6.65;72.84;99412.75;5111577;28;20237;-60
2022/12/14 11:36:32;;;;;;;0.70;0.70;;;;;;;6.72;74.46;99394.78;5110948;28;20289;-60
2022/12/14 11:39:01;;;;;;;0.83;0.83;;;;;;;6.77;74.22;99393.03;5111524;28;20229;-60
2022/12/14 11:41:33;;;;;;;0.50;0.50;;;;;;;6.65;73.52;99374.53;5111315;28;20647;-60
2022/12/14 11:44:05;;;;;;;0.60;0.60;;;;;;;6.75;72.10;99383.72;5111047;28;20186;-60
2022/12/14 11:46:43;;;;;;;0.70;0.70;;;;;;;6.88;73.35;99380.94;5107643;28;20194;-60
2022/12/14 11:49:21;;;;;;;0.60;0.60;;;;;;;6.76;71.99;99380.28;5111680;28;20285;-60
2022/12/14 11:51:59;;;;;;;0.50;0.50;;;;;;;6.71;73.48;99382.94;5111489;28;20202;-59
2022/12/14 11:54:26;;;;;;;1.47;1.47;;;;;;;6.67;72.86;99375.34;5111627;28;20207;-60
2022/12/14 11:56:59;;;;;;;1.03;0.90;;;;;;;6.63;72.94;99369.44;5111286;28;20202;-60
2022/12/14 11:59:31;;;;;;;0.57;0.57;;;;;;;6.71;72.67;99379.53;5111195;28;20202;-60
2022/12/14 12:02:09;;;;;;;0.63;0.63;;;;;;;6.68;73.48;99382.97;5110573;28;20202;-60
2022/12/14 12:04:45;;;;;;;0.53;0.53;;;;;;;6.76;73.16;99380.28;5111212;28;20674;-60
2022/12/14 12:07:14;;;;;;;0.60;0.60;;;;;;;6.78;73.50;99381.13;5111422;28;20194;-60
2022/12/14 12:09:42;;;;;;;0.77;0.77;;;;;;;6.91;73.16;99369.03;5111191;28;20207;-60
2022/12/14 12:12:18;;;;;;;0.67;0.67;;;;;;;6.94;72.91;99359.66;5111321;28;20268;-60